Time;durP1;ratioP1;P1;durP2;ratioP2;P2;SDS_P1;SDS_P2;PMS_P1;PMS_P2;Temp;Humidity;BMP_temperature;BMP_pressure;BME280_temperature;BME280_humidity;BME280_pressure;Samples;Min_cycle;Max_cycle;Signal;HPM_P1;HPM_P2
2022/07/13 00:01:40;;;;;;;3.70;0.75;;;;;;;0.00;0.00;59042.03;21299644;27;20690;-76
2022/07/13 00:11:40;;;;;;;2.72;0.50;;;;;;;0.00;0.00;59042.03;21301303;27;20498;-76
2022/07/13 00:21:41;;;;;;;1.23;0.68;;;;;;;0.00;0.00;59042.03;21310107;27;20035;-76
2022/07/13 00:31:42;;;;;;;1.10;0.70;;;;;;;0.00;0.00;59042.03;21311462;27;20065;-76
2022/07/13 00:41:47;;;;;;;2.67;0.60;;;;;;;0.00;0.00;59042.03;21309879;27;20084;-76
2022/07/13 00:51:47;;;;;;;1.00;0.75;;;;;;;0.00;0.00;59042.03;21309978;27;20082;-76
2022/07/13 01:01:48;;;;;;;3.35;0.70;;;;;;;0.00;0.00;59042.03;21306476;27;20035;-76
2022/07/13 01:11:50;;;;;;;1.95;0.52;;;;;;;0.00;0.00;59042.03;21307466;27;20050;-76
2022/07/13 01:22:02;;;;;;;2.13;0.53;;;;;;;0.00;0.00;59042.03;21309424;27;20039;-76
2022/07/13 01:32:03;;;;;;;1.48;0.70;;;;;;;0.00;0.00;59042.03;21308560;27;20100;-76
2022/07/13 01:42:04;;;;;;;2.05;0.73;;;;;;;0.00;0.00;59042.03;21300514;27;20049;-75
2022/07/13 01:52:04;;;;;;;1.02;0.70;;;;;;;0.00;0.00;59042.03;21299591;27;20750;-75
2022/07/13 02:02:05;;;;;;;3.67;1.00;;;;;;;0.00;0.00;59042.03;21280772;27;20059;-75
2022/07/13 02:12:06;;;;;;;1.50;0.77;;;;;;;0.00;0.00;59042.03;21302556;27;20120;-75
2022/07/13 02:22:09;;;;;;;0.70;0.60;;;;;;;0.00;0.00;59042.03;21304852;27;20515;-75
2022/07/13 02:32:10;;;;;;;1.77;0.93;;;;;;;0.00;0.00;59042.03;21296987;27;20082;-76
2022/07/13 02:42:10;;;;;;;4.22;0.93;;;;;;;0.00;0.00;59042.03;21307574;27;20043;-76
2022/07/13 02:52:11;;;;;;;1.20;0.80;;;;;;;0.00;0.00;59042.03;21311941;27;20221;-75
2022/07/13 03:02:12;;;;;;;0.95;0.80;;;;;;;0.00;0.00;59042.03;21275588;27;21247;-76
2022/07/13 03:12:13;;;;;;;1.00;0.83;;;;;;;0.00;0.00;59042.03;21303530;27;20043;-75
2022/07/13 03:22:13;;;;;;;1.53;0.90;;;;;;;0.00;0.00;59042.03;21297867;27;20308;-76
2022/07/13 03:32:14;;;;;;;1.40;0.70;;;;;;;0.00;0.00;59042.03;21289844;27;21289;-75
2022/07/13 03:42:15;;;;;;;3.05;1.08;;;;;;;0.00;0.00;59042.03;21276028;27;20050;-76
2022/07/13 03:52:17;;;;;;;7.82;3.45;;;;;;;0.00;0.00;59042.03;21313657;27;20125;-76
2022/07/13 04:02:17;;;;;;;6.53;1.40;;;;;;;0.00;0.00;59042.03;21299016;27;20044;-76
2022/07/13 04:12:21;;;;;;;2.03;1.20;;;;;;;0.00;0.00;59042.03;21305109;27;20066;-77
2022/07/13 04:22:21;;;;;;;1.00;0.90;;;;;;;0.00;0.00;59042.03;21310425;27;20348;-77
2022/07/13 04:32:22;;;;;;;3.92;0.77;;;;;;;0.00;0.00;59042.03;21297647;27;20048;-76
2022/07/13 04:42:23;;;;;;;1.60;0.90;;;;;;;0.00;0.00;59042.03;21339472;27;20111;-76
2022/07/13 04:52:24;;;;;;;1.80;0.80;;;;;;;0.00;0.00;59042.03;21317823;27;20039;-77
2022/07/13 05:02:25;;;;;;;1.42;0.90;;;;;;;0.00;0.00;59042.03;21288977;27;20046;-76
2022/07/13 05:12:25;;;;;;;1.10;0.90;;;;;;;0.00;0.00;59042.03;21275198;27;20027;-75
2022/07/13 05:22:26;;;;;;;2.85;1.00;;;;;;;0.00;0.00;59042.03;21335635;27;20151;-76
2022/07/13 05:32:27;;;;;;;2.28;0.90;;;;;;;0.00;0.00;59042.03;21341281;27;20031;-76
2022/07/13 05:42:28;;;;;;;2.03;1.00;;;;;;;0.00;0.00;59042.03;21334665;27;20036;-76
2022/07/13 05:52:29;;;;;;;1.38;0.98;;;;;;;0.00;0.00;59042.03;21335922;27;20039;-77
2022/07/13 06:02:29;;;;;;;2.80;0.70;;;;;;;0.00;0.00;59042.03;21323284;27;20039;-76
2022/07/13 06:12:30;;;;;;;2.65;0.77;;;;;;;0.00;0.00;59042.03;21326293;27;20279;-76
2022/07/13 06:22:31;;;;;;;2.08;0.90;;;;;;;0.00;0.00;59042.03;21324568;27;20035;-78
2022/07/13 06:32:31;;;;;;;4.43;0.90;;;;;;;0.00;0.00;59042.03;21324476;27;20103;-77
2022/07/13 06:42:31;;;;;;;3.13;0.90;;;;;;;0.00;0.00;59042.03;21323799;27;20897;-76
2022/07/13 06:52:33;;;;;;;3.15;0.77;;;;;;;0.00;0.00;59042.03;21339580;27;20042;-79
2022/07/13 07:02:36;;;;;;;4.72;1.15;;;;;;;0.00;0.00;59042.03;21310889;27;20035;-78
2022/07/13 07:12:36;;;;;;;;;;;;;;;0.00;0.00;59042.03;21306597;27;20043;-78
2022/07/13 07:22:37;;;;;;;3.58;1.00;;;;;;;0.00;0.00;59042.03;21353419;27;19994;-78
2022/07/13 07:32:38;;;;;;;2.35;1.27;;;;;;;0.00;0.00;59042.03;21339705;27;21332;-78
2022/07/13 07:42:39;;;;;;;1.80;0.80;;;;;;;0.00;0.00;59042.03;21329520;27;20039;-77
2022/07/13 07:52:39;;;;;;;2.63;1.20;;;;;;;0.00;0.00;59042.03;21319718;27;20043;-75
2022/07/13 08:02:40;;;;;;;1.38;0.90;;;;;;;0.00;0.00;59042.03;21327314;27;20158;-76
2022/07/13 08:12:41;;;;;;;2.47;1.00;;;;;;;0.00;0.00;59042.03;21340492;27;20571;-77
2022/07/13 08:22:41;;;;;;;5.38;1.52;;;;;;;0.00;0.00;59042.03;21348037;27;20055;-76
2022/07/13 08:32:42;;;;;;;2.72;1.17;;;;;;;0.00;0.00;59042.03;21334033;27;20050;-76
2022/07/13 08:42:42;;;;;;;1.23;1.00;;;;;;;0.00;0.00;59042.03;21345737;27;20047;-75
2022/07/13 08:52:42;;;;;;;1.45;1.10;;;;;;;0.00;0.00;59042.03;21356202;27;20043;-76
2022/07/13 09:02:43;;;;;;;1.30;1.20;;;;;;;0.00;0.00;59042.03;21354241;27;20039;-76
2022/07/13 09:12:43;;;;;;;1.60;1.50;;;;;;;0.00;0.00;59042.03;21340005;27;20047;-77
2022/07/13 09:22:54;;;;;;;2.88;1.50;;;;;;;0.00;0.00;59042.03;21334810;27;20126;-76
2022/07/13 09:32:57;;;;;;;2.53;1.88;;;;;;;0.00;0.00;59042.03;21329462;27;20074;-77
2022/07/13 09:53:25;;;;;;;2.20;2.00;;;;;;;0.00;0.00;59042.03;21335430;27;20074;-76
2022/07/13 10:03:29;;;;;;;3.38;1.60;;;;;;;0.00;0.00;59042.03;21330737;27;20093;-75
2022/07/13 10:13:30;;;;;;;2.08;1.77;;;;;;;0.00;0.00;59042.03;21311874;27;20049;-76
2022/07/13 10:23:38;;;;;;;1.85;1.60;;;;;;;0.00;0.00;59042.03;21338885;27;20495;-75
2022/07/13 10:33:43;;;;;;;1.73;1.50;;;;;;;0.00;0.00;59042.03;21320010;27;20494;-76
2022/07/13 10:43:52;;;;;;;1.50;1.40;;;;;;;0.00;0.00;59042.03;21334537;27;20042;-76
2022/07/13 10:53:52;;;;;;;1.83;1.58;;;;;;;0.00;0.00;59042.03;21338426;27;20487;-76
2022/07/13 11:03:53;;;;;;;2.42;1.50;;;;;;;0.00;0.00;59042.03;21341561;27;20049;-76
2022/07/13 11:13:53;;;;;;;1.00;1.00;;;;;;;0.00;0.00;59042.03;21343023;27;20063;-76
2022/07/13 11:34:18;;;;;;;2.75;1.20;;;;;;;0.00;0.00;59042.03;21333112;27;20043;-76
2022/07/13 11:44:24;;;;;;;1.42;1.20;;;;;;;0.00;0.00;59042.03;21319781;27;20046;-76
2022/07/13 11:54:25;;;;;;;1.05;0.95;;;;;;;0.00;0.00;59042.03;21343227;27;20134;-77
2022/07/13 12:04:26;;;;;;;1.77;1.10;;;;;;;0.00;0.00;59042.03;21334059;27;20790;-75
2022/07/13 12:14:27;;;;;;;1.03;0.93;;;;;;;0.00;0.00;59042.03;21342824;27;20055;-76
2022/07/13 12:24:29;;;;;;;0.77;0.75;;;;;;;0.00;0.00;59042.03;21346523;27;20054;-76
2022/07/13 12:34:29;;;;;;;1.90;1.02;;;;;;;0.00;0.00;59042.03;21344127;27;20039;-75
2022/07/13 12:44:30;;;;;;;1.40;1.10;;;;;;;0.00;0.00;59042.03;21320477;27;20036;-75
2022/07/13 12:54:51;;;;;;;0.63;0.63;;;;;;;0.00;0.00;59042.03;21314297;27;20514;-76
2022/07/13 13:04:51;;;;;;;0.70;0.70;;;;;;;0.00;0.00;59042.03;21328649;27;20066;-76
2022/07/13 13:14:52;;;;;;;1.02;0.80;;;;;;;0.00;0.00;59042.03;21332200;27;20488;-76
2022/07/13 13:24:52;;;;;;;1.05;0.90;;;;;;;0.00;0.00;59042.03;21339068;27;20050;-76
2022/07/13 13:34:52;;;;;;;0.70;0.70;;;;;;;0.00;0.00;59042.03;21340611;27;20055;-75
2022/07/13 13:44:53;;;;;;;0.68;0.63;;;;;;;0.00;0.00;59042.03;21322660;27;20023;-75
2022/07/13 13:54:53;;;;;;;1.35;0.75;;;;;;;0.00;0.00;59042.03;21338819;27;20388;-76
2022/07/13 14:04:54;;;;;;;0.70;0.70;;;;;;;0.00;0.00;59042.03;21340314;27;20036;-76
2022/07/13 14:14:57;;;;;;;0.50;0.50;;;;;;;0.00;0.00;59042.03;21241040;27;20100;-76
2022/07/13 14:24:59;;;;;;;0.57;0.50;;;;;;;0.00;0.00;59042.03;21253414;27;20044;-76
2022/07/13 14:34:59;;;;;;;0.40;0.40;;;;;;;0.00;0.00;59042.03;21240786;27;20047;-76
2022/07/13 14:44:59;;;;;;;0.57;0.57;;;;;;;0.00;0.00;59042.03;21240424;27;20256;-77
2022/07/13 14:55:00;;;;;;;0.50;0.50;;;;;;;0.00;0.00;59042.03;21246831;27;20043;-76
2022/07/13 15:05:11;;;;;;;0.80;0.60;;;;;;;0.00;0.00;59042.03;21254416;27;20100;-77
2022/07/13 15:15:11;;;;;;;2.60;0.60;;;;;;;0.00;0.00;59042.03;21332610;27;20054;-76
2022/07/13 15:25:12;;;;;;;0.65;0.45;;;;;;;0.00;0.00;59042.03;21341327;27;20125;-76
2022/07/13 15:35:13;;;;;;;0.38;0.38;;;;;;;0.00;0.00;59042.03;21328859;27;20051;-76
2022/07/13 15:45:13;;;;;;;0.40;0.40;;;;;;;0.00;0.00;59042.03;21300948;27;20046;-77
2022/07/13 15:55:14;;;;;;;2.05;0.60;;;;;;;0.00;0.00;59042.03;21321278;27;20086;-76
2022/07/13 16:05:15;;;;;;;0.65;0.50;;;;;;;0.00;0.00;59042.03;21327055;27;20039;-76
2022/07/13 16:15:16;;;;;;;0.70;0.57;;;;;;;0.00;0.00;59042.03;21319764;27;20985;-76
2022/07/13 16:25:17;;;;;;;2.13;0.50;;;;;;;0.00;0.00;59042.03;21313253;27;20040;-74
2022/07/13 16:35:18;;;;;;;1.90;0.40;;;;;;;0.00;0.00;59042.03;21340299;27;20511;-74
2022/07/13 16:45:18;;;;;;;0.68;0.50;;;;;;;0.00;0.00;59042.03;21313051;27;20028;-75
2022/07/13 16:55:20;;;;;;;2.35;0.75;;;;;;;0.00;0.00;59042.03;21336949;27;20051;-75
2022/07/13 17:05:22;;;;;;;2.72;0.70;;;;;;;0.00;0.00;59042.03;21341507;27;20047;-74
2022/07/13 17:15:22;;;;;;;;;;;;;;;0.00;0.00;59042.03;21340608;27;20376;-74
2022/07/13 17:25:23;;;;;;;1.27;0.82;;;;;;;0.00;0.00;59042.03;21334543;27;19923;-75
2022/07/13 17:35:23;;;;;;;1.90;0.77;;;;;;;0.00;0.00;59042.03;21352213;27;20062;-76
2022/07/13 17:45:24;;;;;;;0.88;0.65;;;;;;;0.00;0.00;59042.03;21304080;27;20031;-75
2022/07/13 17:55:24;;;;;;;1.45;1.00;;;;;;;0.00;0.00;59042.03;21317959;27;20079;-75
2022/07/13 18:05:25;;;;;;;2.15;0.85;;;;;;;0.00;0.00;59042.03;21335554;27;20670;-75
2022/07/13 18:15:26;;;;;;;4.23;0.90;;;;;;;0.00;0.00;59042.03;21325914;27;21140;-75
2022/07/13 18:25:27;;;;;;;3.90;1.47;;;;;;;0.00;0.00;59042.03;21338980;27;20188;-76
2022/07/13 18:35:27;;;;;;;4.80;2.53;;;;;;;0.00;0.00;59042.03;21308833;27;20431;-75
2022/07/13 18:45:28;;;;;;;3.72;2.00;;;;;;;0.00;0.00;59042.03;21311613;27;20104;-75
2022/07/13 18:55:28;;;;;;;4.43;1.80;;;;;;;0.00;0.00;59042.03;21311881;27;20051;-74
2022/07/13 19:05:29;;;;;;;2.58;1.60;;;;;;;0.00;0.00;59042.03;21291048;27;20047;-74
2022/07/13 19:15:31;;;;;;;6.85;2.05;;;;;;;0.00;0.00;59042.03;21309862;27;20044;-74
2022/07/13 19:35:50;;;;;;;4.95;2.40;;;;;;;0.00;0.00;59042.03;21304277;27;20044;-77
2022/07/13 19:45:51;;;;;;;3.93;1.90;;;;;;;0.00;0.00;59042.03;21329137;27;20045;-79
2022/07/13 19:55:51;;;;;;;3.90;1.80;;;;;;;0.00;0.00;59042.03;21307050;27;20924;-75
2022/07/13 20:05:52;;;;;;;3.45;1.90;;;;;;;0.00;0.00;59042.03;21316180;27;20146;-74
2022/07/13 20:15:53;;;;;;;4.63;1.93;;;;;;;0.00;0.00;59042.03;21311148;27;20400;-74
2022/07/13 20:25:53;;;;;;;3.80;1.88;;;;;;;0.00;0.00;59042.03;21324564;27;20513;-74
2022/07/13 20:35:57;;;;;;;5.80;2.40;;;;;;;0.00;0.00;59042.03;21316241;27;20059;-75
2022/07/13 20:45:58;;;;;;;4.20;2.10;;;;;;;0.00;0.00;59042.03;21339300;27;20043;-75
2022/07/13 20:55:58;;;;;;;5.75;2.45;;;;;;;0.00;0.00;59042.03;21325836;27;20801;-75
2022/07/13 21:05:59;;;;;;;3.80;2.42;;;;;;;0.00;0.00;59042.03;21331987;27;20074;-75
2022/07/13 21:15:59;;;;;;;5.55;1.90;;;;;;;0.00;0.00;59042.03;21339344;27;20406;-75
2022/07/13 21:26:00;;;;;;;4.68;2.05;;;;;;;0.00;0.00;59042.03;21344627;27;20043;-76
2022/07/13 21:36:00;;;;;;;3.72;1.83;;;;;;;0.00;0.00;59042.03;21335998;27;20027;-74
2022/07/13 21:46:01;;;;;;;4.88;1.80;;;;;;;0.00;0.00;59042.03;21357896;27;20043;-75
2022/07/13 21:56:01;;;;;;;3.35;2.03;;;;;;;0.00;0.00;59042.03;21349667;27;20039;-75
2022/07/13 22:06:15;;;;;;;2.33;1.73;;;;;;;0.00;0.00;59042.03;21327875;27;20039;-76
2022/07/13 22:16:53;;;;;;;5.43;2.13;;;;;;;0.00;0.00;59042.03;21351130;27;20299;-73
2022/07/13 22:27:31;;;;;;;2.05;1.77;;;;;;;0.00;0.00;59042.03;21342982;27;20050;-75
2022/07/13 22:38:09;;;;;;;4.15;1.50;;;;;;;0.00;0.00;59042.03;21341689;27;20134;-75
2022/07/13 22:48:47;;;;;;;3.03;1.60;;;;;;;0.00;0.00;59042.03;21335939;27;20441;-74
2022/07/13 22:59:25;;;;;;;3.95;1.42;;;;;;;0.00;0.00;59042.03;21333642;27;20047;-75
2022/07/13 23:10:03;;;;;;;2.38;1.30;;;;;;;0.00;0.00;59042.03;21327756;27;20054;-75
2022/07/13 23:20:42;;;;;;;6.13;1.40;;;;;;;0.00;0.00;59042.03;21338411;27;20511;-75
2022/07/13 23:31:06;;;;;;;1.48;1.20;;;;;;;0.00;0.00;59042.03;21333472;27;20418;-75
2022/07/13 23:41:07;;;;;;;2.90;1.38;;;;;;;0.00;0.00;59042.03;21331025;27;20047;-75
2022/07/13 23:51:08;;;;;;;1.58;1.15;;;;;;;0.00;0.00;59042.03;21339927;27;20058;-75
